Time;durP1;ratioP1;P1;durP2;ratioP2;P2;SDS_P1;SDS_P2;PMS_P1;PMS_P2;Temp;Humidity;BMP_temperature;BMP_pressure;BME280_temperature;BME280_humidity;BME280_pressure;Samples;Min_cycle;Max_cycle;Signal;HPM_P1;HPM_P2
2024/03/07 00:01:52;;;;;;;31.33;21.43;;;9.60;95.10;;;;;;5054645;28;20437;-56
2024/03/07 00:04:19;;;;;;;31.13;22.47;;;9.60;95.20;;;;;;5054266;28;20561;-57
2024/03/07 00:06:48;;;;;;;32.27;23.67;;;9.60;95.20;;;;;;5054520;28;20860;-56
2024/03/07 00:09:16;;;;;;;31.10;21.00;;;9.50;95.10;;;;;;5054272;28;20524;-56
2024/03/07 00:11:43;;;;;;;29.73;21.20;;;9.50;95.20;;;;;;5054154;28;20827;-57
2024/03/07 00:14:10;;;;;;;32.70;22.27;;;9.50;95.20;;;;;;5056235;28;20462;-56
2024/03/07 00:16:37;;;;;;;29.83;20.67;;;9.50;95.20;;;;;;5074241;28;20451;-56
2024/03/07 00:19:03;;;;;;;32.13;21.17;;;9.50;95.20;;;;;;5074260;28;20447;-56
2024/03/07 00:21:30;;;;;;;32.80;22.50;;;9.40;95.10;;;;;;5074566;28;20449;-57
2024/03/07 00:23:59;;;;;;;32.97;20.70;;;9.40;95.10;;;;;;5074457;28;20467;-57
2024/03/07 00:26:26;;;;;;;30.00;20.63;;;9.40;95.20;;;;;;5074217;28;20445;-57
2024/03/07 00:28:53;;;;;;;28.90;20.80;;;9.30;95.20;;;;;;5074319;28;20537;-57
2024/03/07 00:31:19;;;;;;;29.90;20.30;;;9.30;95.30;;;;;;5074011;28;20447;-57
2024/03/07 00:33:46;;;;;;;27.63;21.17;;;9.30;95.40;;;;;;5073931;28;20445;-57
2024/03/07 00:36:13;;;;;;;30.27;20.07;;;9.20;95.30;;;;;;5073822;28;20449;-57
2024/03/07 00:38:40;;;;;;;32.10;23.60;;;9.30;95.40;;;;;;5073780;28;20445;-57
2024/03/07 00:41:09;;;;;;;29.20;21.40;;;9.20;95.30;;;;;;5073909;28;20449;-58
2024/03/07 00:43:37;;;;;;;32.20;23.30;;;9.20;95.40;;;;;;5073488;28;20445;-57
2024/03/07 00:46:06;;;;;;;32.13;21.80;;;9.20;95.90;;;;;;5073494;28;20878;-57
2024/03/07 00:48:33;;;;;;;34.93;24.17;;;9.20;95.60;;;;;;5073605;28;20480;-57
2024/03/07 00:51:00;;;;;;;32.60;24.13;;;9.20;95.70;;;;;;5073671;28;20445;-57
2024/03/07 00:53:26;;;;;;;36.50;24.30;;;9.10;95.80;;;;;;5073311;28;20449;-57
2024/03/07 00:55:53;;;;;;;36.43;24.57;;;9.10;96.00;;;;;;5073640;28;20539;-56
2024/03/07 00:58:21;;;;;;;32.27;23.13;;;9.10;96.10;;;;;;5072925;28;20967;-57
2024/03/07 01:00:49;;;;;;;35.87;24.53;;;9.00;96.20;;;;;;5073442;28;20535;-57
2024/03/07 01:03:17;;;;;;;38.83;24.70;;;9.00;96.40;;;;;;5073499;28;20810;-57
2024/03/07 01:05:44;;;;;;;34.67;23.23;;;9.00;96.50;;;;;;5073374;28;20537;-57
2024/03/07 01:08:11;;;;;;;30.63;21.90;;;8.90;96.50;;;;;;5073378;28;20917;-56
2024/03/07 01:10:38;;;;;;;34.70;23.77;;;8.90;96.60;;;;;;5073430;28;20538;-57
2024/03/07 01:13:07;;;;;;;38.67;24.13;;;9.00;96.80;;;;;;5073376;28;20455;-57
2024/03/07 01:15:36;;;;;;;32.57;23.03;;;8.90;96.70;;;;;;5073277;28;20464;-57
2024/03/07 01:18:03;;;;;;;29.50;22.03;;;8.90;96.70;;;;;;5073335;28;20854;-57
2024/03/07 01:20:30;;;;;;;38.47;25.23;;;8.90;96.80;;;;;;5073312;28;20452;-57
2024/03/07 01:22:56;;;;;;;35.30;23.40;;;8.90;96.90;;;;;;5073245;28;20445;-57
2024/03/07 01:25:23;;;;;;;33.07;22.53;;;8.90;96.90;;;;;;5073103;28;20456;-57
2024/03/07 01:27:51;;;;;;;35.27;23.97;;;8.80;96.90;;;;;;5073128;28;20890;-57
2024/03/07 01:30:18;;;;;;;35.17;22.90;;;8.80;97.00;;;;;;5072891;28;21013;-57
2024/03/07 01:32:46;;;;;;;34.57;21.93;;;8.90;97.00;;;;;;5073102;28;20449;-57
2024/03/07 01:35:13;;;;;;;34.43;23.20;;;8.80;96.90;;;;;;5072803;28;20548;-57
2024/03/07 01:37:40;;;;;;;32.33;21.90;;;8.80;97.00;;;;;;5072889;28;21014;-57
2024/03/07 01:40:09;;;;;;;32.83;21.63;;;8.80;97.00;;;;;;5073691;28;20943;-56
2024/03/07 01:42:35;;;;;;;31.40;22.10;;;8.80;97.30;;;;;;5073881;28;20445;-57
2024/03/07 01:45:02;;;;;;;42.70;23.50;;;8.80;96.90;;;;;;5073518;28;20460;-57
2024/03/07 01:47:29;;;;;;;33.83;22.43;;;8.70;96.80;;;;;;5073332;28;20483;-57
2024/03/07 01:49:59;;;;;;;32.20;22.40;;;8.70;96.90;;;;;;5073125;28;20455;-57
2024/03/07 01:52:26;;;;;;;33.53;24.10;;;8.70;96.90;;;;;;5073143;28;20456;-57
2024/03/07 01:54:53;;;;;;;33.13;21.83;;;8.70;96.90;;;;;;5072689;28;20670;-57
2024/03/07 01:57:20;;;;;;;33.93;22.70;;;8.70;97.00;;;;;;5072876;28;20478;-56
2024/03/07 01:59:50;;;;;;;36.00;22.70;;;8.60;97.00;;;;;;5073130;28;20447;-57
2024/03/07 02:02:17;;;;;;;38.13;24.90;;;8.60;97.10;;;;;;5074058;28;20503;-57
2024/03/07 02:04:44;;;;;;;34.20;22.97;;;8.60;97.00;;;;;;5072866;28;20461;-57
2024/03/07 02:07:12;;;;;;;37.20;25.00;;;8.60;97.10;;;;;;5073359;28;20445;-57
2024/03/07 02:09:39;;;;;;;36.90;25.50;;;8.50;97.10;;;;;;5076560;28;21026;-57
2024/03/07 02:12:08;;;;;;;37.33;24.53;;;8.50;97.10;;;;;;5076852;28;20448;-57
2024/03/07 02:14:35;;;;;;;35.37;23.50;;;8.50;97.20;;;;;;5076675;28;20522;-56
2024/03/07 02:17:02;;;;;;;40.60;23.93;;;8.50;97.20;;;;;;5076550;28;20446;-57
2024/03/07 02:19:29;;;;;;;39.70;26.27;;;8.50;97.10;;;;;;5076651;28;20479;-56
2024/03/07 02:21:57;;;;;;;40.80;26.13;;;8.50;97.20;;;;;;5076949;28;20467;-57
2024/03/07 02:24:24;;;;;;;35.17;23.60;;;8.50;97.20;;;;;;5076492;28;20478;-57
2024/03/07 02:26:52;;;;;;;39.27;23.87;;;8.40;97.10;;;;;;5076508;28;20441;-57
2024/03/07 02:29:19;;;;;;;36.20;24.60;;;8.40;97.10;;;;;;5076032;28;20484;-57
2024/03/07 02:31:46;;;;;;;40.03;24.57;;;8.40;97.10;;;;;;5076078;28;20451;-57
2024/03/07 02:34:13;;;;;;;37.57;25.67;;;8.40;97.10;;;;;;5076267;28;20464;-57
2024/03/07 02:36:40;;;;;;;49.03;24.33;;;8.40;97.10;;;;;;5076351;28;20474;-57
2024/03/07 02:39:09;;;;;;;43.47;26.00;;;8.30;97.00;;;;;;5075990;28;20957;-57
2024/03/07 02:41:36;;;;;;;40.83;23.60;;;8.30;97.00;;;;;;5075841;28;20444;-57
2024/03/07 02:44:03;;;;;;;41.37;25.37;;;8.30;97.10;;;;;;5076022;28;20467;-57
2024/03/07 02:46:32;;;;;;;38.70;25.20;;;8.30;97.40;;;;;;5076082;28;20451;-57
2024/03/07 02:48:59;;;;;;;39.17;25.87;;;8.30;97.20;;;;;;5076095;28;20567;-57
2024/03/07 02:51:25;;;;;;;37.50;24.80;;;8.30;97.20;;;;;;5075673;28;20455;-57
2024/03/07 02:53:52;;;;;;;35.23;22.67;;;8.20;97.10;;;;;;5075683;28;20536;-57
2024/03/07 02:56:20;;;;;;;42.90;25.87;;;8.20;97.20;;;;;;5075924;28;20470;-57
2024/03/07 02:58:47;;;;;;;37.40;24.30;;;8.20;97.20;;;;;;5075928;28;20566;-57
2024/03/07 03:01:14;;;;;;;36.70;23.63;;;8.20;97.20;;;;;;5075887;28;20436;-57
2024/03/07 03:03:42;;;;;;;36.53;25.90;;;8.10;97.20;;;;;;5075684;28;20449;-57
2024/03/07 03:06:09;;;;;;;33.30;24.30;;;8.10;97.10;;;;;;5075727;28;20860;-57
2024/03/07 03:08:36;;;;;;;35.67;23.23;;;8.10;97.10;;;;;;5075660;28;20483;-57
2024/03/07 03:11:04;;;;;;;40.47;27.30;;;8.00;97.10;;;;;;5075442;28;20452;-57
2024/03/07 03:13:33;;;;;;;41.47;26.73;;;8.10;97.00;;;;;;5075566;28;20448;-57
2024/03/07 03:16:03;;;;;;;37.70;25.50;;;8.00;96.90;;;;;;5075490;28;20444;-57
2024/03/07 03:18:31;;;;;;;33.03;24.00;;;8.00;96.90;;;;;;5075015;28;20445;-57
2024/03/07 03:20:57;;;;;;;37.90;25.47;;;7.90;96.90;;;;;;5074680;28;20445;-56
2024/03/07 03:23:25;;;;;;;35.30;24.53;;;7.90;96.90;;;;;;5075356;28;20448;-57
2024/03/07 03:25:51;;;;;;;42.60;26.53;;;7.90;96.80;;;;;;5075241;28;20497;-57
2024/03/07 03:28:19;;;;;;;42.97;26.00;;;7.90;96.80;;;;;;5074916;28;20476;-57
2024/03/07 03:30:49;;;;;;;35.67;22.63;;;7.80;96.80;;;;;;5075145;28;20531;-57
2024/03/07 03:33:16;;;;;;;35.53;23.37;;;7.80;96.80;;;;;;5075406;28;20444;-57
2024/03/07 03:35:43;;;;;;;32.00;22.23;;;7.80;96.90;;;;;;5075172;28;20471;-57
2024/03/07 03:38:10;;;;;;;39.03;23.70;;;7.80;97.00;;;;;;5075379;28;20463;-57
2024/03/07 03:40:37;;;;;;;32.23;20.57;;;7.70;97.10;;;;;;5075628;28;20445;-57
2024/03/07 03:43:04;;;;;;;37.43;24.37;;;7.70;97.10;;;;;;5075087;28;20441;-57
2024/03/07 03:45:32;;;;;;;34.73;21.80;;;7.70;97.10;;;;;;5075145;28;20468;-56
2024/03/07 03:48:01;;;;;;;30.80;20.60;;;7.70;97.00;;;;;;5074841;28;20487;-57
2024/03/07 03:50:28;;;;;;;30.30;20.13;;;7.60;97.00;;;;;;5074842;28;20440;-57
2024/03/07 03:52:55;;;;;;;33.07;22.63;;;7.60;97.10;;;;;;5075018;28;20444;-57
2024/03/07 03:55:22;;;;;;;30.90;20.93;;;7.60;97.30;;;;;;5074303;28;20483;-57
2024/03/07 03:57:49;;;;;;;31.00;20.00;;;7.60;97.50;;;;;;5074684;28;20505;-57
2024/03/07 04:00:16;;;;;;;34.20;20.67;;;7.60;97.60;;;;;;5074704;28;20444;-57
2024/03/07 04:02:47;;;;;;;32.00;19.60;;;7.60;97.70;;;;;;5074599;28;20444;-57
2024/03/07 04:05:17;;;;;;;27.53;19.13;;;7.50;97.60;;;;;;5074606;28;20803;-57
2024/03/07 04:07:44;;;;;;;27.47;18.87;;;7.50;97.70;;;;;;5074069;28;20821;-57
2024/03/07 04:10:12;;;;;;;30.33;19.80;;;7.50;97.60;;;;;;5074034;28;20445;-57
2024/03/07 04:12:39;;;;;;;28.27;18.77;;;7.50;97.60;;;;;;5074376;28;20448;-57
2024/03/07 04:15:09;;;;;;;30.00;20.00;;;7.50;97.60;;;;;;5074201;28;20534;-57
2024/03/07 04:17:36;;;;;;;27.77;19.10;;;7.50;97.60;;;;;;5074295;28;20531;-57
2024/03/07 04:20:05;;;;;;;31.03;20.50;;;7.40;97.90;;;;;;5073967;28;21025;-57
2024/03/07 04:22:33;;;;;;;33.23;21.17;;;7.40;97.60;;;;;;5073881;28;20445;-57
2024/03/07 04:25:01;;;;;;;33.77;22.43;;;7.40;97.50;;;;;;5073714;28;20990;-57
2024/03/07 04:27:28;;;;;;;37.50;20.10;;;7.40;97.50;;;;;;5073707;28;20540;-57
2024/03/07 04:29:55;;;;;;;29.13;19.67;;;7.40;97.50;;;;;;5073676;28;20484;-57
2024/03/07 04:32:23;;;;;;;31.33;21.80;;;7.30;97.50;;;;;;5073703;28;20456;-57
2024/03/07 04:34:50;;;;;;;33.00;21.00;;;7.30;97.60;;;;;;5073705;28;20555;-56
2024/03/07 04:37:17;;;;;;;32.73;21.60;;;7.30;97.60;;;;;;5070741;28;20966;-56
2024/03/07 04:39:45;;;;;;;32.73;23.07;;;7.30;97.70;;;;;;5054049;28;20441;-57
2024/03/07 04:42:12;;;;;;;31.90;21.50;;;7.30;97.70;;;;;;5064464;28;20486;-56
2024/03/07 04:44:39;;;;;;;32.83;22.27;;;7.30;97.80;;;;;;5073485;28;20464;-56
2024/03/07 04:47:07;;;;;;;32.63;21.27;;;7.20;97.70;;;;;;5073421;28;20992;-56
2024/03/07 04:49:34;;;;;;;31.77;21.27;;;7.20;97.80;;;;;;5073538;28;20481;-56
2024/03/07 04:52:02;;;;;;;39.30;22.50;;;7.20;97.80;;;;;;5073682;28;20441;-56
2024/03/07 04:54:31;;;;;;;28.77;20.10;;;7.20;97.90;;;;;;5073296;28;20475;-56
2024/03/07 04:56:59;;;;;;;31.63;19.27;;;7.20;97.90;;;;;;5073803;28;20498;-56
2024/03/07 04:59:26;;;;;;;35.70;20.83;;;7.10;97.90;;;;;;5073852;28;20816;-56
2024/03/07 05:01:53;;;;;;;32.90;23.13;;;7.10;97.90;;;;;;5074384;28;20451;-55
2024/03/07 05:04:20;;;;;;;32.40;20.80;;;7.10;98.00;;;;;;5074467;28;20460;-55
2024/03/07 05:06:47;;;;;;;33.67;21.77;;;7.10;97.90;;;;;;5073851;28;20441;-56
2024/03/07 05:09:22;;;;;;;37.10;23.07;;;7.10;97.90;;;;;;5073540;28;20930;-56
2024/03/07 05:11:51;;;;;;;38.70;22.43;;;7.10;97.90;;;;;;5073618;28;20429;-56
2024/03/07 05:14:20;;;;;;;29.90;21.90;;;7.10;97.80;;;;;;5073572;28;20475;-56
2024/03/07 05:17:01;;;;;;;33.10;21.80;;;7.10;97.90;;;;;;5073450;28;20436;-56
2024/03/07 05:19:29;;;;;;;35.90;23.07;;;7.10;97.90;;;;;;5073490;28;20775;-56
2024/03/07 05:21:56;;;;;;;30.50;21.40;;;7.00;98.00;;;;;;5073089;28;20453;-56
2024/03/07 05:24:22;;;;;;;33.43;22.67;;;7.00;98.00;;;;;;5073386;28;20464;-56
2024/03/07 05:26:49;;;;;;;38.83;24.90;;;7.00;98.00;;;;;;5073308;28;20444;-56
2024/03/07 05:29:17;;;;;;;35.83;23.57;;;6.90;98.10;;;;;;5073228;28;20481;-56
2024/03/07 05:31:47;;;;;;;35.33;22.40;;;6.90;98.10;;;;;;5073378;28;20444;-56
2024/03/07 05:34:14;;;;;;;34.83;21.70;;;6.90;98.20;;;;;;5073304;28;20465;-56
2024/03/07 05:36:44;;;;;;;34.37;22.67;;;6.80;98.20;;;;;;5073275;28;20499;-56
2024/03/07 05:39:11;;;;;;;35.63;23.23;;;6.80;98.20;;;;;;5073429;28;20445;-56
2024/03/07 05:41:38;;;;;;;36.87;24.43;;;6.80;98.30;;;;;;5072892;28;20943;-56
2024/03/07 05:44:08;;;;;;;38.37;25.03;;;6.80;98.30;;;;;;5076797;28;20460;-56
2024/03/07 05:46:37;;;;;;;32.80;23.80;;;6.70;98.40;;;;;;5077238;28;20424;-56
2024/03/07 05:49:05;;;;;;;35.67;24.37;;;6.70;98.60;;;;;;5077083;28;20495;-56
2024/03/07 05:51:33;;;;;;;39.93;25.73;;;6.70;98.60;;;;;;5076840;28;20440;-56
2024/03/07 05:53:59;;;;;;;35.40;23.83;;;6.70;98.70;;;;;;5076904;28;20475;-56
2024/03/07 05:56:27;;;;;;;34.63;22.20;;;6.70;98.70;;;;;;5076982;28;20531;-56
2024/03/07 05:58:54;;;;;;;39.20;25.63;;;6.70;98.80;;;;;;5076827;28;20436;-55
2024/03/07 06:01:20;;;;;;;35.30;22.70;;;6.70;98.80;;;;;;5077020;28;20466;-56
2024/03/07 06:03:48;;;;;;;33.40;23.53;;;6.60;98.80;;;;;;5076831;28;20444;-56
2024/03/07 06:06:16;;;;;;;37.77;24.33;;;6.60;98.70;;;;;;5076886;28;20445;-56
2024/03/07 06:08:44;;;;;;;36.33;24.27;;;6.60;98.60;;;;;;5076727;28;20487;-56
2024/03/07 06:11:13;;;;;;;35.53;24.80;;;6.60;98.60;;;;;;5076435;28;20939;-56
2024/03/07 06:13:39;;;;;;;34.93;22.50;;;6.60;98.60;;;;;;5077130;28;20860;-56
2024/03/07 06:16:07;;;;;;;33.10;21.80;;;6.50;98.40;;;;;;5076966;28;20445;-56
2024/03/07 06:18:35;;;;;;;32.93;23.30;;;6.50;98.50;;;;;;5076692;28;20451;-56
2024/03/07 06:21:04;;;;;;;33.10;22.90;;;6.50;98.70;;;;;;5076233;28;20447;-55
2024/03/07 06:23:32;;;;;;;32.43;22.33;;;6.50;98.80;;;;;;5076209;28;21033;-56
2024/03/07 06:26:00;;;;;;;39.87;22.83;;;6.50;98.90;;;;;;5076398;28;20986;-56
2024/03/07 06:28:28;;;;;;;37.53;24.23;;;6.40;99.30;;;;;;5076386;28;20480;-56
2024/03/07 06:30:55;;;;;;;32.97;21.87;;;6.40;99.10;;;;;;5076417;28;20441;-56
2024/03/07 06:33:22;;;;;;;29.73;21.53;;;6.40;99.20;;;;;;5076485;28;20440;-55
2024/03/07 06:35:51;;;;;;;28.93;20.73;;;6.30;99.50;;;;;;5075955;28;20468;-55
2024/03/07 06:38:18;;;;;;;23.90;18.13;;;6.30;99.60;;;;;;5076334;28;20452;-56
2024/03/07 06:40:46;;;;;;;26.97;20.00;;;6.20;99.60;;;;;;5075844;28;20988;-56
2024/03/07 06:43:13;;;;;;;41.17;19.13;;;6.20;99.80;;;;;;5075874;28;20447;-56
2024/03/07 06:45:41;;;;;;;34.13;20.07;;;6.20;99.90;;;;;;5075774;28;20931;-56
2024/03/07 06:48:09;;;;;;;32.03;20.33;;;6.20;99.90;;;;;;5076088;28;20453;-56
2024/03/07 06:50:36;;;;;;;26.63;21.00;;;6.20;99.90;;;;;;5075895;28;20490;-56
2024/03/07 06:53:03;;;;;;;40.53;21.70;;;6.20;99.90;;;;;;5075707;28;20446;-56
2024/03/07 06:55:30;;;;;;;31.47;20.53;;;6.30;99.90;;;;;;5075636;28;20551;-56
2024/03/07 06:57:59;;;;;;;26.40;20.60;;;6.30;99.90;;;;;;5075912;28;20465;-55
2024/03/07 07:00:26;;;;;;;25.23;19.53;;;6.30;99.90;;;;;;5076138;28;20444;-56
2024/03/07 07:02:54;;;;;;;34.53;20.90;;;6.30;99.90;;;;;;5075478;28;20947;-56
2024/03/07 07:05:23;;;;;;;22.83;19.53;;;6.30;99.90;;;;;;5075752;28;20471;-56
2024/03/07 07:07:50;;;;;;;22.80;19.10;;;6.30;99.90;;;;;;5076158;28;20456;-56
2024/03/07 07:10:18;;;;;;;24.33;19.43;;;6.30;99.90;;;;;;5075673;28;20491;-56
2024/03/07 07:12:46;;;;;;;25.80;20.13;;;6.30;99.90;;;;;;5075906;28;20441;-56
2024/03/07 07:15:15;;;;;;;21.10;17.70;;;6.30;99.90;;;;;;5075531;28;20465;-55
2024/03/07 07:17:44;;;;;;;22.90;17.53;;;6.40;99.90;;;;;;5075534;28;20449;-56
2024/03/07 07:20:14;;;;;;;21.60;18.17;;;6.30;99.90;;;;;;5075679;28;20448;-56
2024/03/07 07:22:41;;;;;;;20.90;18.37;;;6.40;99.90;;;;;;5075433;28;20444;-56
2024/03/07 07:25:13;;;;;;;22.37;18.20;;;6.40;99.90;;;;;;5075314;28;20468;-56
2024/03/07 07:27:41;;;;;;;20.63;18.00;;;6.40;99.90;;;;;;5076069;28;20433;-56
2024/03/07 07:30:09;;;;;;;23.80;18.90;;;6.50;99.90;;;;;;5075031;28;21005;-56
2024/03/07 07:32:38;;;;;;;25.53;19.43;;;6.50;99.90;;;;;;5075527;28;20470;-56
2024/03/07 07:35:09;;;;;;;23.93;19.10;;;6.50;99.90;;;;;;5075054;28;20556;-55
2024/03/07 07:37:36;;;;;;;27.23;20.23;;;6.60;99.90;;;;;;5075177;28;20435;-56
2024/03/07 07:40:03;;;;;;;24.93;20.20;;;6.70;99.90;;;;;;5066011;28;20464;-56
2024/03/07 07:42:30;;;;;;;30.37;22.73;;;6.70;99.90;;;;;;5054994;28;20449;-57
2024/03/07 07:44:57;;;;;;;30.77;22.83;;;6.80;99.90;;;;;;5054821;28;20471;-56
2024/03/07 07:47:23;;;;;;;30.77;23.67;;;6.90;99.90;;;;;;5054989;28;20438;-57
2024/03/07 07:49:52;;;;;;;40.13;24.90;;;7.00;99.90;;;;;;5054519;28;20577;-58
2024/03/07 07:52:18;;;;;;;36.50;26.37;;;7.10;99.90;;;;;;5054478;28;20906;-57
2024/03/07 07:54:45;;;;;;;34.73;24.67;;;7.20;99.90;;;;;;5054529;28;20477;-57
2024/03/07 07:57:12;;;;;;;35.00;24.97;;;7.20;99.90;;;;;;5054802;28;20441;-56
2024/03/07 07:59:39;;;;;;;38.10;26.50;;;7.30;99.90;;;;;;5054706;28;20438;-57
2024/03/07 08:02:06;;;;;;;35.10;26.73;;;7.40;99.90;;;;;;5054402;28;20490;-57
2024/03/07 08:04:33;;;;;;;33.47;25.20;;;7.50;99.90;;;;;;5054488;28;20463;-57
2024/03/07 08:07:01;;;;;;;38.27;26.30;;;7.60;99.90;;;;;;5054096;28;20445;-57
2024/03/07 08:09:28;;;;;;;35.50;26.43;;;7.70;99.90;;;;;;5055119;28;20489;-57
2024/03/07 08:11:55;;;;;;;39.87;25.63;;;7.80;99.90;;;;;;5054444;28;20452;-57
2024/03/07 08:14:22;;;;;;;33.37;23.80;;;7.90;99.90;;;;;;5054195;28;20983;-57
2024/03/07 08:16:51;;;;;;;34.17;24.47;;;8.00;99.90;;;;;;5055179;28;20441;-57
2024/03/07 08:19:17;;;;;;;33.50;25.03;;;8.10;99.90;;;;;;5055407;28;20477;-55
2024/03/07 08:21:44;;;;;;;38.07;25.23;;;8.10;99.90;;;;;;5055304;28;20460;-57
2024/03/07 08:24:12;;;;;;;33.43;23.97;;;8.20;99.90;;;;;;5054248;28;20516;-57
2024/03/07 08:26:44;;;;;;;35.27;23.67;;;8.30;99.90;;;;;;5054587;28;20441;-57
2024/03/07 08:29:11;;;;;;;34.30;24.03;;;8.40;99.90;;;;;;5054249;28;20426;-57
2024/03/07 08:31:37;;;;;;;36.93;24.63;;;8.50;99.90;;;;;;5054237;28;20533;-57
2024/03/07 08:34:04;;;;;;;32.90;23.03;;;8.60;99.90;;;;;;5053808;28;21002;-57
2024/03/07 08:36:31;;;;;;;32.07;23.80;;;8.70;99.90;;;;;;5054177;28;20445;-57
2024/03/07 08:38:58;;;;;;;31.30;22.93;;;8.70;99.90;;;;;;5054038;28;20446;-56
2024/03/07 08:41:26;;;;;;;30.50;22.30;;;8.80;99.90;;;;;;5053725;28;20437;-56
2024/03/07 08:43:53;;;;;;;30.70;22.87;;;8.90;99.90;;;;;;5054057;28;20808;-57
2024/03/07 08:46:20;;;;;;;34.40;25.07;;;8.90;99.90;;;;;;5053904;28;20450;-57
2024/03/07 08:48:46;;;;;;;29.70;21.70;;;9.00;99.80;;;;;;5053619;28;20446;-56
2024/03/07 08:51:17;;;;;;;28.00;23.13;;;9.10;99.60;;;;;;5053885;28;20486;-57
2024/03/07 08:53:44;;;;;;;30.23;20.63;;;9.20;99.40;;;;;;5053533;28;20519;-57
2024/03/07 08:56:11;;;;;;;29.53;23.30;;;9.20;99.10;;;;;;5053836;28;20451;-56
2024/03/07 08:58:39;;;;;;;29.13;22.20;;;9.30;98.90;;;;;;5053847;28;20525;-56
2024/03/07 09:01:06;;;;;;;32.83;23.73;;;9.40;98.60;;;;;;5053877;28;20442;-56
2024/03/07 09:03:33;;;;;;;32.87;23.77;;;9.40;98.30;;;;;;5053574;28;20897;-55
2024/03/07 09:06:00;;;;;;;31.73;22.37;;;9.50;98.20;;;;;;5053500;28;20552;-56
2024/03/07 09:08:27;;;;;;;31.63;22.83;;;9.50;97.80;;;;;;5053533;28;20442;-56
2024/03/07 09:10:55;;;;;;;29.87;22.17;;;9.60;97.60;;;;;;5053116;28;20915;-56
2024/03/07 09:13:21;;;;;;;29.13;18.97;;;9.70;97.30;;;;;;5053458;28;20544;-56
2024/03/07 09:15:50;;;;;;;27.17;19.80;;;9.70;96.70;;;;;;5053289;28;20469;-56
2024/03/07 09:18:16;;;;;;;24.43;18.10;;;9.70;96.20;;;;;;5052606;28;20448;-56
2024/03/07 09:20:43;;;;;;;23.17;16.80;;;9.80;95.40;;;;;;5053259;28;20455;-56
2024/03/07 09:23:10;;;;;;;23.00;18.50;;;9.80;94.70;;;;;;5053335;28;20444;-56
2024/03/07 09:25:37;;;;;;;24.33;17.03;;;9.90;94.20;;;;;;5053456;28;20466;-56
2024/03/07 09:28:05;;;;;;;23.67;17.63;;;10.00;93.40;;;;;;5053084;28;20464;-56
2024/03/07 09:30:32;;;;;;;23.10;16.80;;;10.10;93.10;;;;;;5053321;28;20477;-56
2024/03/07 09:33:02;;;;;;;22.70;17.20;;;10.20;92.50;;;;;;5053162;28;20476;-56
2024/03/07 09:35:28;;;;;;;22.57;16.20;;;10.20;92.10;;;;;;5052886;28;20548;-55
2024/03/07 09:37:56;;;;;;;22.73;16.73;;;10.30;91.90;;;;;;5053190;28;20441;-55
2024/03/07 09:40:24;;;;;;;24.73;18.23;;;10.40;91.40;;;;;;5052778;28;20955;-56
2024/03/07 09:42:54;;;;;;;26.27;18.50;;;10.40;91.00;;;;;;5053052;28;20445;-56
2024/03/07 09:45:22;;;;;;;22.97;17.47;;;10.50;90.80;;;;;;5053002;28;20465;-56
2024/03/07 09:47:51;;;;;;;24.70;17.00;;;10.60;90.50;;;;;;5052784;28;20815;-56
2024/03/07 09:50:21;;;;;;;23.67;18.17;;;10.80;90.30;;;;;;5052938;28;20480;-56
2024/03/07 09:52:50;;;;;;;23.70;18.13;;;10.90;90.10;;;;;;5053054;28;20426;-56
2024/03/07 09:55:19;;;;;;;19.93;16.00;;;11.00;88.80;;;;;;5052574;28;20478;-56
2024/03/07 09:57:47;;;;;;;22.57;16.50;;;11.00;87.30;;;;;;5052924;28;20450;-56
2024/03/07 10:00:22;;;;;;;19.57;14.93;;;11.20;86.80;;;;;;5053110;28;20446;-56
2024/03/07 10:02:51;;;;;;;21.00;15.30;;;11.30;87.10;;;;;;5052801;28;20943;-56
2024/03/07 10:05:20;;;;;;;18.73;15.93;;;11.40;84.10;;;;;;5053087;28;20548;-56
2024/03/07 10:07:47;;;;;;;19.23;15.60;;;11.40;82.80;;;;;;5052929;28;20452;-55
2024/03/07 10:10:14;;;;;;;37.80;18.77;;;11.50;81.50;;;;;;5052543;28;20491;-56
2024/03/07 10:12:41;;;;;;;42.57;21.83;;;11.70;82.80;;;;;;5053112;28;20449;-56
2024/03/07 10:15:12;;;;;;;61.20;26.90;;;12.00;84.10;;;;;;5053075;28;20566;-56
2024/03/07 10:17:39;;;;;;;32.70;18.17;;;12.40;85.30;;;;;;5052678;28;20452;-56
2024/03/07 10:20:09;;;;;;;23.00;15.97;;;12.80;85.60;;;;;;5052586;28;20524;-56
2024/03/07 10:22:37;;;;;;;18.50;16.27;;;13.20;81.00;;;;;;5052847;28;20799;-56
2024/03/07 10:25:05;;;;;;;23.50;15.90;;;13.40;77.70;;;;;;5052677;28;20471;-56
2024/03/07 10:27:32;;;;;;;18.83;16.27;;;13.60;76.50;;;;;;5052777;28;20445;-56
2024/03/07 10:29:59;;;;;;;21.77;16.80;;;13.70;75.40;;;;;;5055462;28;20943;-56
2024/03/07 10:32:26;;;;;;;17.23;14.30;;;13.70;74.60;;;;;;5056344;28;20524;-56
2024/03/07 10:34:54;;;;;;;20.00;16.20;;;13.90;73.70;;;;;;5056230;28;20475;-55
2024/03/07 10:37:21;;;;;;;20.13;15.87;;;13.90;71.50;;;;;;5056228;28;20450;-54
2024/03/07 10:39:50;;;;;;;19.13;16.23;;;13.80;68.20;;;;;;5056222;28;20441;-55
2024/03/07 10:42:18;;;;;;;21.97;16.00;;;13.60;67.10;;;;;;5056010;28;20449;-55
2024/03/07 10:44:47;;;;;;;21.37;16.60;;;13.50;68.50;;;;;;5056008;28;20470;-56
2024/03/07 10:47:17;;;;;;;18.23;16.23;;;13.30;67.80;;;;;;5055755;28;20944;-56
2024/03/07 10:49:54;;;;;;;22.23;16.60;;;13.20;67.90;;;;;;5055779;28;20487;-56
2024/03/07 10:52:30;;;;;;;25.53;16.73;;;13.30;67.30;;;;;;5056052;28;20457;-54
2024/03/07 10:55:10;;;;;;;22.90;16.47;;;13.70;65.70;;;;;;5055432;28;20476;-55
2024/03/07 10:57:48;;;;;;;21.73;16.10;;;14.30;64.10;;;;;;5055910;28;20436;-55
2024/03/07 11:00:29;;;;;;;24.63;18.00;;;14.90;62.00;;;;;;5055656;28;20417;-55
2024/03/07 11:02:57;;;;;;;20.23;16.90;;;15.30;59.60;;;;;;5055882;28;20432;-55
2024/03/07 11:05:29;;;;;;;19.70;17.40;;;16.00;59.00;;;;;;5055392;28;20843;-55
2024/03/07 11:07:58;;;;;;;19.23;16.40;;;16.70;57.10;;;;;;5055748;28;20434;-55
2024/03/07 11:10:27;;;;;;;19.47;17.37;;;17.40;54.50;;;;;;5055668;28;20528;-55
2024/03/07 11:12:55;;;;;;;20.33;15.87;;;17.90;52.00;;;;;;5055495;28;20448;-55
2024/03/07 11:15:26;;;;;;;19.63;16.47;;;18.40;51.10;;;;;;5055500;28;20468;-55
2024/03/07 11:17:54;;;;;;;16.70;14.90;;;18.90;48.60;;;;;;5055575;28;20432;-55
2024/03/07 11:20:22;;;;;;;19.23;17.23;;;19.50;48.70;;;;;;5055199;28;20441;-55
2024/03/07 11:22:50;;;;;;;18.87;15.93;;;20.00;46.10;;;;;;5055175;28;20940;-55
2024/03/07 11:25:19;;;;;;;20.23;17.13;;;20.40;44.60;;;;;;5055347;28;20465;-55
2024/03/07 11:27:55;;;;;;;17.80;16.00;;;20.90;43.30;;;;;;5055373;28;20449;-55
2024/03/07 11:30:23;;;;;;;17.90;15.80;;;21.20;41.60;;;;;;5056087;28;20479;-55
2024/03/07 11:32:53;;;;;;;18.10;16.30;;;21.50;40.80;;;;;;5056080;28;20449;-55
2024/03/07 11:35:25;;;;;;;19.73;16.90;;;21.90;40.70;;;;;;5055828;28;20472;-55
2024/03/07 11:37:57;;;;;;;16.83;15.20;;;22.30;39.90;;;;;;5055639;28;20845;-55
2024/03/07 11:40:48;;;;;;;18.10;16.23;;;22.60;36.90;;;;;;5055026;28;20499;-55
2024/03/07 11:43:17;;;;;;;18.40;16.50;;;22.90;37.40;;;;;;5055155;28;20499;-55
2024/03/07 11:45:52;;;;;;;18.60;16.80;;;23.20;36.90;;;;;;5054852;28;20548;-55
2024/03/07 11:48:20;;;;;;;16.60;14.80;;;23.40;36.10;;;;;;5055168;28;20440;-55
2024/03/07 11:50:48;;;;;;;19.00;16.70;;;23.40;36.10;;;;;;5054559;28;20995;-55
2024/03/07 11:53:15;;;;;;;17.03;15.40;;;23.20;36.20;;;;;;5054668;28;20445;-56
2024/03/07 11:55:43;;;;;;;18.83;17.00;;;22.90;36.70;;;;;;5055074;28;20466;-55
2024/03/07 11:58:13;;;;;;;21.23;16.60;;;22.90;36.50;;;;;;5054905;28;20453;-55
2024/03/07 12:00:44;;;;;;;19.90;17.80;;;22.90;37.00;;;;;;5054815;28;20442;-55
2024/03/07 12:03:13;;;;;;;18.37;16.50;;;22.70;36.80;;;;;;5054677;28;20430;-55
2024/03/07 12:05:41;;;;;;;21.80;16.73;;;22.30;36.80;;;;;;5054620;28;20552;-55
2024/03/07 12:08:10;;;;;;;18.90;17.00;;;21.80;37.90;;;;;;5054676;28;20861;-55
2024/03/07 12:10:38;;;;;;;19.63;17.53;;;21.20;38.20;;;;;;5054439;28;20488;-55
2024/03/07 12:13:06;;;;;;;19.13;16.90;;;20.80;39.30;;;;;;5054158;28;20540;-55
2024/03/07 12:15:34;;;;;;;20.27;16.87;;;20.90;39.50;;;;;;5054094;28;20839;-55
2024/03/07 12:18:08;;;;;;;19.43;17.47;;;21.40;39.70;;;;;;5054465;28;20457;-55
2024/03/07 12:20:36;;;;;;;18.30;16.43;;;22.20;38.10;;;;;;5054160;28;20943;-55
2024/03/07 12:23:05;;;;;;;17.50;15.80;;;22.90;36.40;;;;;;5055383;28;20450;-55
2024/03/07 12:25:32;;;;;;;18.70;16.90;;;23.70;36.50;;;;;;5054313;28;20522;-55
2024/03/07 12:28:10;;;;;;;16.43;14.93;;;24.60;35.00;;;;;;5054277;28;20449;-55
2024/03/07 12:30:49;;;;;;;16.77;15.07;;;25.30;33.30;;;;;;5054099;28;20430;-55
2024/03/07 12:33:19;;;;;;;17.90;16.20;;;26.00;32.50;;;;;;5053741;28;20899;-56
2024/03/07 12:35:47;;;;;;;16.83;15.23;;;26.60;30.60;;;;;;5054096;28;20594;-55
2024/03/07 12:38:16;;;;;;;17.10;15.50;;;27.10;29.90;;;;;;5053725;28;20446;-55